TAF AMD SPEO 051500Z 0315/0412 19004KT 9999 FEW040 BKN080 TX29/0319Z TN23/0411Z
From batch tds/tafs/production/2024/2/3/h15_m30_tafs.cache.xml.gz
Issued (22 days ago)
Forecasts TAF AMD SPEO 051500Z 0315/0412 19004KT 9999 FEW040 BKN080 TX29/0319Z TN23/0411Z
BECMG 0316/0318 19015KT
BECMG 0323/0401 19005KT
TAF KWRB 050800Z 0508/0614 04009KT 9999 VCSH OVC015 QNH2960INS
From batch tds/tafs/production/2024/2/5/h08_m00_tafs.cache.xml.gz
Issued (23 days ago)
Forecasts TAF KWRB 050800Z 0508/0614 04009KT 9999 VCSH OVC015 QNH2960INS
BECMG 0509/0510 02012KT 9999 NSW BKN015 QNH2962INS
BECMG 0517/0518 02010G20KT 9999 VCSH BKN015 OVC030 QNH2975INS
BECMG 0523/0524 02009KT 9999 NSW BKN030 QNH2976INS TX13/0521Z TN06/0514Z
TAF OKAS 050800Z 0508/0614 15004KT SKC QNH3023INS
From batch tds/tafs/production/2024/2/5/h08_m00_tafs.cache.xml.gz
Issued (23 days ago)
Forecasts TAF OKAS 050800Z 0508/0614 15004KT SKC QNH3023INS
BECMG 0510/0511 07004KT 9999 SKC QNH3015INS
BECMG 0521/0522 24011KT 9999 FEW070 QNH3017INS
BECMG 0609/0610 30013KT 9999 SKC QNH3019INS TX21/0609Z TN07/0521Z
TAF RKJK 050800Z 0508/0614 08008KT 8000 -RA SCT010 BKN020 OVC025 650208 QNH3006INS
From batch tds/tafs/production/2024/2/5/h08_m00_tafs.cache.xml.gz
Issued (23 days ago)
Forecasts TAF RKJK 050800Z 0508/0614 08008KT 8000 -RA SCT010 BKN020 OVC025 650208 QNH3006INS
TEMPO 0508/0513 4800 OVC010
BECMG 0513/0514 07010KT 6000 BR OVC015 620207 QNH3019INS
TEMPO 0514/0518 3200 BR OVC007
BECMG 0523/0524 02012KT 8000 BR OVC025 620253 QNH3029INS
BECMG 0605/0606 34010KT 9999 NSW SCT020 QNH3027INS TX06/0604Z TN01/0521Z
TAF KBLV 050800Z 0508/0614 01009KT 9999 SCT250 QNH2995INS TX12/0521Z TNM01/0512Z
From batch tds/tafs/production/2024/2/5/h08_m00_tafs.cache.xml.gz
Issued (23 days ago)
Forecasts TAF KBLV 050800Z 0508/0614 01009KT 9999 SCT250 QNH2995INS TX12/0521Z TNM01/0512Z
TAF KGRK 050800Z 0508/0614 34015G25KT 9999 BKN015 BKN025 510009 QNH2995INS
From batch tds/tafs/production/2024/2/5/h08_m00_tafs.cache.xml.gz
Issued (23 days ago)
Forecasts TAF KGRK 050800Z 0508/0614 34015G25KT 9999 BKN015 BKN025 510009 QNH2995INS
TEMPO 0508/0516 35025G35KT BKN012 520009
BECMG 0516/0517 35015G20KT 9999 SCT020 BKN030 510009 QNH3010INS
BECMG 0521/0522 35010G15KT 9999 SCT030 QNH3011INS
BECMG 0523/0524 34012KT 9999 SKC QNH3012INS WND 33008KT AFT 0603 TX17/0521Z TN09/0512Z
TAF KHOP 050800Z 0508/0614 02007KT 9999 BKN200 QNH2986INS
From batch tds/tafs/production/2024/2/5/h08_m00_tafs.cache.xml.gz
Issued (23 days ago)
Forecasts TAF KHOP 050800Z 0508/0614 02007KT 9999 BKN200 QNH2986INS
BECMG 0513/0514 02007KT 9999 FEW250 QNH2997INS TX11/0519Z TN03/0607Z
TAF KMMT 050800Z 0508/0614 04009KT 9000 -RA FEW020 BKN035 510063 QNH2970INS
From batch tds/tafs/production/2024/2/5/h08_m00_tafs.cache.xml.gz
Issued (23 days ago)
Forecasts TAF KMMT 050800Z 0508/0614 04009KT 9000 -RA FEW020 BKN035 510063 QNH2970INS
TEMPO 0508/0512 05025G35KT
BECMG 0514/0515 03009KT 9999 NSW SCT020 WS020/05035KT 510202 QNH2977INS
BECMG 0518/0519 03012G18KT 9999 FEW200 510063 QNH2980INS
BECMG 0522/0523 VRB06KT 9999 SKC QNH2982INS
BECMG 0613/0614 02012G18KT 9999 SKC 510013 QNH3005INS TX14/0600Z TN02/0513Z
TAF AMD UTSK 050759Z 0507/0516 16010G20KT CAVOK
From batch tds/tafs/production/2024/2/5/h08_m00_tafs.cache.xml.gz
Issued (23 days ago)
Forecasts TAF AMD UTSK 050759Z 0507/0516 16010G20KT CAVOK
KBOI 050759Z 0508/0606 12015G25KT P6SM VCSH OVC050
From batch tds/tafs/production/2024/2/5/h08_m00_tafs.cache.xml.gz
Issued (23 days ago)
Forecasts KBOI 050759Z 0508/0606 12015G25KT P6SM VCSH OVC050
TEMPO 0508/0509 -SHRA OVC025
FM050900 12015G25KT P6SM VCSH OVC050 WS020/14050KT
FM051600 14014KT P6SM OVC070
FM052300 13010KT P6SM OVC100
KATL 050759Z 0508/0612 07016G24KT P6SM -RA BKN025
From batch tds/tafs/production/2024/2/5/h08_m00_tafs.cache.xml.gz
Issued (23 days ago)
Forecasts KATL 050759Z 0508/0612 07016G24KT P6SM -RA BKN025
FM050900 07016G26KT P6SM BKN025
FM051100 07014G24KT P6SM OVC020
FM051700 06015KT P6SM BKN025
FM052100 04009KT P6SM SCT060
KSAV 050758Z 0508/0606 02009KT 6SM BR SCT005 OVC006
From batch tds/tafs/production/2024/2/5/h08_m00_tafs.cache.xml.gz
Issued (23 days ago)
Forecasts KSAV 050758Z 0508/0606 02009KT 6SM BR SCT005 OVC006
FM051600 02010G15KT P6SM VCSH OVC008
FM052000 01013G19KT P6SM SCT008 OVC010
FM060200 01014G21KT P6SM SCT010 OVC025
KGEG 050758Z 0508/0606 06008KT 6SM BR SCT008 OVC070
From batch tds/tafs/production/2024/2/5/h08_m00_tafs.cache.xml.gz
Issued (23 days ago)
Forecasts KGEG 050758Z 0508/0606 06008KT 6SM BR SCT008 OVC070
FM051200 06007KT 6SM BR VCSH SCT020 OVC040
FM051500 07007KT 4SM -SNRA BR OVC030
FM051700 07006KT 2SM -RA BR OVC015
FM052100 10005KT 5SM -SHRA BR OVC018
TAF EGHC 050758Z 0507/0515 23012KT 9999 FEW020 BKN030
From batch tds/tafs/production/2024/2/5/h08_m00_tafs.cache.xml.gz
Issued (23 days ago)
Forecasts TAF EGHC 050758Z 0507/0515 23012KT 9999 FEW020 BKN030
PROB40
TEMPO 0507/0512 BKN010
PROB30
TEMPO 0507/0515 25015G25KT
KCMX 050756Z 0508/0606 30005KT P6SM OVC030
From batch tds/tafs/production/2024/2/5/h08_m00_tafs.cache.xml.gz
Issued (23 days ago)
Forecasts KCMX 050756Z 0508/0606 30005KT P6SM OVC030
FM051100 30005KT 5SM BR OVC011
FM051400 00000KT 3SM BR OVC007
FM051700 VRB03KT 2SM BR OVC008
FM051900 00000KT 4SM BR BKN010
KMFD 050755Z 0508/0606 36007KT 2SM BR BKN003
From batch tds/tafs/production/2024/2/5/h08_m00_tafs.cache.xml.gz
Issued (23 days ago)
Forecasts KMFD 050755Z 0508/0606 36007KT 2SM BR BKN003
FM051200 01008KT 4SM BR BKN030
FM051800 02009KT P6SM BKN018
FM060000 02010KT P6SM SCT015
KSLK 050755Z 0508/0606 00000KT P6SM SCT025
From batch tds/tafs/production/2024/2/5/h08_m00_tafs.cache.xml.gz
Issued (23 days ago)
Forecasts KSLK 050755Z 0508/0606 00000KT P6SM SCT025
TEMPO 0508/0510 BKN022
FM051400 04006KT P6SM FEW025
TAF EGTC 050753Z 0507/0515 24018G30KT 9999 SCT015
From batch tds/tafs/production/2024/2/5/h08_m00_tafs.cache.xml.gz
Issued (23 days ago)
Forecasts TAF EGTC 050753Z 0507/0515 24018G30KT 9999 SCT015
TEMPO 0507/0514 BKN014
TAF EGPL 050753Z 0507/0515 09003KT 9999 SCT020
From batch tds/tafs/production/2024/2/5/h08_m00_tafs.cache.xml.gz
Issued (23 days ago)
Forecasts TAF EGPL 050753Z 0507/0515 09003KT 9999 SCT020
TEMPO 0507/0515 6000 RA
PROB30
TEMPO 0507/0515 3000 +RA BKN006
KMEV 050752Z 0508/0606 19020G30KT P6SM VCSH SCT010 BKN070
From batch tds/tafs/production/2024/2/5/h08_m00_tafs.cache.xml.gz
Issued (23 days ago)
Forecasts KMEV 050752Z 0508/0606 19020G30KT P6SM VCSH SCT010 BKN070
FM051300 16014G22KT 4SM -SHRASN BKN030 OVC040
FM052000 20008KT P6SM VCSH BKN025 OVC040
TAF AMD YMHB 050752Z 0507/0606 20016KT CAVOK
From batch tds/tafs/production/2024/2/5/h08_m00_tafs.cache.xml.gz
Issued (23 days ago)
Forecasts TAF AMD YMHB 050752Z 0507/0606 20016KT CAVOK
FM051000 23010KT CAVOK
FM051400 34006KT CAVOK
FM060300 14012KT CAVOK
TAF BGMQ 050751Z 0508/0515 08008KT 9999 BKN015
From batch tds/tafs/production/2024/2/5/h08_m00_tafs.cache.xml.gz
Issued (23 days ago)
Forecasts TAF BGMQ 050751Z 0508/0515 08008KT 9999 BKN015
TEMPO 0508/0515 6000 -SN SCT015
TAF BGGH 050751Z 0508/0515 08012KT 9999 BKN035
From batch tds/tafs/production/2024/2/5/h08_m00_tafs.cache.xml.gz
Issued (23 days ago)
Forecasts TAF BGGH 050751Z 0508/0515 08012KT 9999 BKN035
TEMPO 0508/0515 DRSN SCT035
KHVR 050751Z 0508/0606 VRB06KT 2SM BR BKN003
From batch tds/tafs/production/2024/2/5/h08_m00_tafs.cache.xml.gz
Issued (23 days ago)
Forecasts KHVR 050751Z 0508/0606 VRB06KT 2SM BR BKN003
TEMPO 0508/0512 1/2SM FZFG BKN003
FM051500 VRB06KT P6SM BKN009
FM060000 VRB06KT P6SM SCT009 OVC030
KBGM 050750Z 0508/0606 01008KT P6SM BKN005 OVC012
From batch tds/tafs/production/2024/2/5/h08_m00_tafs.cache.xml.gz
Issued (23 days ago)
Forecasts KBGM 050750Z 0508/0606 01008KT P6SM BKN005 OVC012
FM051400 36006KT P6SM SCT018 SCT060
talk